createdAt,value
2019-01-21T00:02:21.966Z,63.27
2019-01-21T00:04:53.228Z,63.26
2019-01-21T00:07:24.539Z,63.26
2019-01-21T00:09:55.758Z,63.29
2019-01-21T00:12:27.031Z,63.26
2019-01-21T00:14:58.301Z,63.28
2019-01-21T00:17:29.544Z,63.31
2019-01-21T00:20:00.896Z,63.32
2019-01-21T00:22:32.257Z,63.41
2019-01-21T00:25:03.608Z,63.35
2019-01-21T00:27:34.995Z,63.37
2019-01-21T00:30:06.374Z,63.36
2019-01-21T00:32:37.588Z,63.35
2019-01-21T00:35:08.892Z,63.29
2019-01-21T00:37:40.104Z,63.29
2019-01-21T00:40:11.833Z,63.27
2019-01-21T00:42:42.987Z,63.28
2019-01-21T00:45:14.866Z,63.28
2019-01-21T00:47:46.648Z,63.27
2019-01-21T00:50:17.969Z,63.29
2019-01-21T00:52:49.234Z,63.38
2019-01-21T00:55:20.541Z,63.41
2019-01-21T00:57:51.876Z,63.46
2019-01-21T01:00:24.724Z,63.49
2019-01-21T01:02:56.017Z,63.46
2019-01-21T01:05:27.294Z,63.40
2019-01-21T01:07:58.745Z,63.41
2019-01-21T01:10:30.082Z,63.43
2019-01-21T01:13:01.232Z,63.47
2019-01-21T01:15:32.422Z,63.43
2019-01-21T01:18:03.673Z,63.45
2019-01-21T01:20:34.873Z,63.48
2019-01-21T01:23:06.121Z,63.50
2019-01-21T01:25:37.314Z,63.48
2019-01-21T01:28:08.572Z,63.47
2019-01-21T01:30:39.727Z,63.46
2019-01-21T01:33:11.206Z,63.47
2019-01-21T01:35:42.479Z,63.49
2019-01-21T01:38:13.747Z,63.49
2019-01-21T01:40:45.294Z,63.46
2019-01-21T01:43:16.656Z,63.48
2019-01-21T01:45:47.933Z,63.45
2019-01-21T01:48:19.251Z,63.46
2019-01-21T01:50:50.597Z,63.48
2019-01-21T01:53:21.913Z,63.47
2019-01-21T01:55:53.386Z,63.40
2019-01-21T01:58:24.655Z,63.36
2019-01-21T02:00:56.157Z,63.37
2019-01-21T02:03:27.762Z,63.35
2019-01-21T02:05:59.440Z,63.34
2019-01-21T02:08:30.774Z,63.29
2019-01-21T02:11:02.013Z,63.33
2019-01-21T02:13:33.433Z,63.45
2019-01-21T02:16:04.603Z,63.39
2019-01-21T02:18:35.963Z,63.49
2019-01-21T02:21:07.172Z,63.51
2019-01-21T02:23:39.320Z,63.55
2019-01-21T02:26:20.319Z,63.55
2019-01-21T02:29:07.792Z,63.57
2019-01-21T02:32:05.225Z,63.60
2019-01-21T02:35:16.316Z,63.61
2019-01-21T02:38:12.773Z,63.63
2019-01-21T02:41:15.587Z,63.66
2019-01-21T02:44:02.707Z,63.65
2019-01-21T02:46:50.586Z,63.65
2019-01-21T02:50:09.476Z,63.60
2019-01-21T02:53:04.508Z,63.59
2019-01-21T02:56:26.109Z,63.63
2019-01-21T02:59:46.913Z,63.62
2019-01-21T03:02:39.563Z,63.60
2019-01-21T03:05:41.997Z,63.59
2019-01-21T03:08:27.817Z,63.48
2019-01-21T03:11:18.408Z,63.47
2019-01-21T03:14:01.551Z,63.47
2019-01-21T03:17:15.801Z,63.45
2019-01-21T03:20:20.847Z,63.46
2019-01-21T03:23:19.501Z,63.50
2019-01-21T03:26:18.306Z,63.54
2019-01-21T03:29:32.305Z,63.53
2019-01-21T03:32:30.933Z,63.57
2019-01-21T03:35:43.337Z,63.63
2019-01-21T03:38:48.601Z,63.69
2019-01-21T03:41:29.970Z,63.69
2019-01-21T03:44:30.309Z,63.82
2019-01-21T03:47:24.661Z,63.78
2019-01-21T03:50:36.719Z,63.85
2019-01-21T03:53:52.028Z,63.86
2019-01-21T03:57:03.058Z,63.89
2019-01-21T04:00:20.492Z,63.91
2019-01-21T04:03:17.494Z,63.86
2019-01-21T04:06:39.133Z,63.86
2019-01-21T04:09:37.337Z,63.81
2019-01-21T04:12:18.019Z,63.78
2019-01-21T04:15:32.008Z,63.78
2019-01-21T04:18:40.559Z,63.78
2019-01-21T04:21:50.290Z,63.84
2019-01-21T04:25:11.032Z,63.85
2019-01-21T04:28:06.323Z,63.87
2019-01-21T04:31:36.620Z,63.89
2019-01-21T04:34:37.014Z,63.86
2019-01-21T04:37:46.107Z,63.86
2019-01-21T04:40:49.923Z,63.85
2019-01-21T04:43:34.468Z,63.87
2019-01-21T04:46:33.346Z,63.95
2019-01-21T04:49:42.571Z,63.91
2019-01-21T04:52:51.212Z,63.91
2019-01-21T04:55:58.545Z,63.91
2019-01-21T04:59:07.172Z,63.92
2019-01-21T05:02:11.849Z,63.87
2019-01-21T05:05:27.347Z,63.84
2019-01-21T05:08:51.807Z,63.82
2019-01-21T05:12:07.075Z,63.78
2019-01-21T05:15:06.287Z,63.83
2019-01-21T05:18:28.529Z,63.80
2019-01-21T05:21:32.347Z,63.74
2019-01-21T05:24:25.893Z,63.78
2019-01-21T05:27:25.344Z,63.76
2019-01-21T05:30:32.192Z,63.74
2019-01-21T05:33:20.483Z,63.80
2019-01-21T05:36:38.712Z,63.73
2019-01-21T05:39:57.515Z,63.72
2019-01-21T05:43:05.154Z,63.75
2019-01-21T05:46:05.483Z,63.77
2019-01-21T05:49:07.859Z,63.75
2019-01-21T05:52:21.732Z,63.74
2019-01-21T05:55:04.348Z,63.76
2019-01-21T05:58:07.408Z,63.80
2019-01-21T06:01:09.366Z,63.80
2019-01-21T06:04:06.045Z,63.82
2019-01-21T06:07:14.367Z,63.82
2019-01-21T06:10:26.407Z,63.81
2019-01-21T06:13:47.777Z,63.82
2019-01-21T06:16:27.735Z,63.86
2019-01-21T06:19:38.504Z,63.84
2019-01-21T06:22:26.684Z,63.81
2019-01-21T06:25:38.007Z,63.83
2019-01-21T06:28:45.136Z,63.85
2019-01-21T06:31:59.340Z,63.87
2019-01-21T06:35:00.998Z,63.90
2019-01-21T06:38:07.458Z,63.95
2019-01-21T06:41:27.775Z,63.97
2019-01-21T06:44:37.518Z,64.05
2019-01-21T06:47:32.652Z,64.04
2019-01-21T06:50:31.048Z,64.10
2019-01-21T06:53:30.758Z,64.10
2019-01-21T06:56:50.785Z,64.17
2019-01-21T06:59:52.179Z,64.19
2019-01-21T07:03:06.652Z,64.15
2019-01-21T07:06:25.008Z,64.07
2019-01-21T07:09:49.860Z,64.05
2019-01-21T07:12:56.870Z,64.05
2019-01-21T07:15:49.310Z,64.03
2019-01-21T07:18:56.902Z,64.02
2019-01-21T07:22:06.589Z,63.99
2019-01-21T07:24:59.514Z,64.05
2019-01-21T07:28:29.342Z,64.04
2019-01-21T07:31:41.662Z,63.99
2019-01-21T07:34:41.997Z,64.02
2019-01-21T07:37:41.098Z,63.97
2019-01-21T07:40:45.211Z,63.96
2019-01-21T07:44:01.984Z,63.97
2019-01-21T07:47:29.032Z,63.94
2019-01-21T07:50:15.784Z,64.02
2019-01-21T07:53:26.629Z,64.01
2019-01-21T07:56:39.514Z,64.03
2019-01-21T07:59:57.951Z,64.00
2019-01-21T08:03:03.671Z,63.99
2019-01-21T08:05:44.055Z,64.00
2019-01-21T08:08:41.490Z,64.00
2019-01-21T08:12:05.826Z,64.02
2019-01-21T08:14:59.314Z,64.03
2019-01-21T08:18:20.599Z,64.03
2019-01-21T08:21:45.159Z,64.00
2019-01-21T08:25:02.486Z,64.01
2019-01-21T08:28:12.630Z,63.94
2019-01-21T08:31:33.438Z,63.86
2019-01-21T08:34:45.487Z,63.82
2019-01-21T08:37:59.468Z,63.78
2019-01-21T08:41:05.718Z,63.84
2019-01-21T08:44:13.939Z,63.87
2019-01-21T08:47:18.369Z,63.89
2019-01-21T08:50:03.014Z,63.93
2019-01-21T08:52:47.668Z,63.96
2019-01-21T08:55:31.012Z,63.94
2019-01-21T08:58:40.241Z,63.92
2019-01-21T09:01:55.338Z,63.95
2019-01-21T09:04:55.778Z,63.95
2019-01-21T09:07:53.026Z,63.96
2019-01-21T09:11:20.893Z,63.91
2019-01-21T09:14:03.122Z,63.89
2019-01-21T09:16:53.440Z,63.82
2019-01-21T09:19:38.019Z,63.78
2019-01-21T09:22:34.100Z,63.81
2019-01-21T09:25:48.565Z,63.81
2019-01-21T09:28:49.398Z,63.84
2019-01-21T09:32:16.998Z,63.84
2019-01-21T09:35:21.492Z,63.84
2019-01-21T09:38:26.451Z,63.81
2019-01-21T09:41:28.970Z,63.75
2019-01-21T09:44:29.923Z,63.73
2019-01-21T09:46:59.523Z,63.73
2019-01-21T09:49:29.177Z,63.68
2019-01-21T09:52:06.055Z,63.65
2019-01-21T09:54:39.207Z,63.59
2019-01-21T09:57:17.277Z,63.52
2019-01-21T09:59:52.254Z,63.47
2019-01-21T10:02:38.059Z,63.45
2019-01-21T10:05:17.077Z,63.51
2019-01-21T10:08:19.412Z,63.54
2019-01-21T10:11:19.321Z,63.58
2019-01-21T10:14:03.955Z,63.57
2019-01-21T10:17:20.595Z,63.57
2019-01-21T10:20:30.869Z,63.55
2019-01-21T10:23:46.648Z,63.51
2019-01-21T10:26:59.439Z,63.48
2019-01-21T10:29:48.291Z,63.41
2019-01-21T10:32:47.375Z,63.45
2019-01-21T10:35:51.523Z,63.42
2019-01-21T10:39:18.990Z,63.47
2019-01-21T10:42:13.864Z,63.47
2019-01-21T10:45:29.282Z,63.45
2019-01-21T10:48:35.548Z,63.46
2019-01-21T10:51:39.510Z,63.47
2019-01-21T10:54:33.976Z,63.42
2019-01-21T10:57:57.932Z,63.42
2019-01-21T11:01:03.678Z,63.38
2019-01-21T11:04:01.242Z,63.31
2019-01-21T11:07:11.795Z,63.30
2019-01-21T11:10:27.345Z,63.33
2019-01-21T11:13:38.157Z,63.33
2019-01-21T11:16:44.178Z,63.40
2019-01-21T11:19:48.795Z,63.37
2019-01-21T11:22:49.804Z,63.33
2019-01-21T11:26:32.785Z,63.34
2019-01-21T11:29:41.942Z,63.33
2019-01-21T11:32:51.401Z,63.23
2019-01-21T11:36:05.458Z,63.23
2019-01-21T11:38:49.395Z,63.23
2019-01-21T11:41:54.908Z,63.25
2019-01-21T11:45:18.694Z,63.27
2019-01-21T11:48:25.397Z,63.30
2019-01-21T11:51:46.814Z,63.35
2019-01-21T11:54:47.962Z,63.32
2019-01-21T11:57:50.302Z,63.34
2019-01-21T12:01:08.776Z,63.32
2019-01-21T12:03:47.424Z,63.26
2019-01-21T12:06:30.800Z,63.28
2019-01-21T12:09:32.278Z,63.26
2019-01-21T12:12:38.114Z,63.28
2019-01-21T12:15:54.566Z,63.28
2019-01-21T12:18:44.048Z,63.25
2019-01-21T12:21:56.320Z,63.24
2019-01-21T12:24:58.208Z,63.21
2019-01-21T12:28:38.038Z,63.21
2019-01-21T12:31:45.385Z,63.11
2019-01-21T12:34:59.333Z,63.06
2019-01-21T12:38:05.472Z,63.08
2019-01-21T12:41:33.372Z,63.12
2019-01-21T12:44:45.214Z,63.11
2019-01-21T12:47:46.373Z,63.14
2019-01-21T12:50:57.430Z,63.18
2019-01-21T12:53:42.944Z,63.17
2019-01-21T12:56:47.296Z,63.16
2019-01-21T12:59:39.842Z,63.16
2019-01-21T13:02:37.888Z,63.13
2019-01-21T13:05:37.457Z,63.16
2019-01-21T13:09:00.207Z,63.13
2019-01-21T13:12:07.562Z,63.12
2019-01-21T13:15:01.383Z,63.11
2019-01-21T13:18:07.471Z,63.12
2019-01-21T13:21:25.935Z,63.13
2019-01-21T13:24:17.037Z,63.09
2019-01-21T13:27:29.482Z,63.06
2019-01-21T13:30:42.584Z,63.01
2019-01-21T13:34:03.783Z,63.01
2019-01-21T13:37:12.070Z,62.99
2019-01-21T13:40:27.302Z,62.98
2019-01-21T13:43:11.905Z,62.97
2019-01-21T13:46:29.077Z,62.95
2019-01-21T13:49:20.579Z,62.91
2019-01-21T13:52:48.126Z,62.88
2019-01-21T13:55:47.619Z,62.87
2019-01-21T13:59:08.854Z,62.86
2019-01-21T14:01:55.827Z,62.83
2019-01-21T14:05:08.246Z,62.93
2019-01-21T14:08:04.033Z,63.33
2019-01-21T14:10:50.351Z,63.65
2019-01-21T14:13:47.783Z,63.78
2019-01-21T14:16:47.118Z,63.73
2019-01-21T14:19:46.347Z,63.38
2019-01-21T14:22:52.452Z,62.85
2019-01-21T14:26:05.957Z,62.52
2019-01-21T14:29:17.591Z,62.48
2019-01-21T14:32:16.165Z,62.44
2019-01-21T14:35:16.742Z,62.31
2019-01-21T14:38:24.356Z,61.98
2019-01-21T14:41:24.851Z,61.48
2019-01-21T14:44:48.606Z,61.06
2019-01-21T14:48:06.066Z,60.73
2019-01-21T14:50:50.743Z,60.50
2019-01-21T14:53:58.100Z,60.40
2019-01-21T14:57:07.158Z,60.44
2019-01-21T15:00:18.941Z,60.43
2019-01-21T15:03:41.735Z,60.43
2019-01-21T15:07:03.055Z,60.47
2019-01-21T15:09:58.151Z,60.55
2019-01-21T15:12:55.505Z,60.64
2019-01-21T15:15:49.033Z,60.86
2019-01-21T15:18:57.805Z,60.86
2019-01-21T15:22:10.516Z,61.11
2019-01-21T15:25:18.744Z,61.11
2019-01-21T15:28:39.509Z,61.01
2019-01-21T15:31:58.157Z,61.10
2019-01-21T15:34:51.904Z,61.18
2019-01-21T15:38:19.769Z,61.29
2019-01-21T15:41:25.584Z,61.38
2019-01-21T15:44:37.606Z,61.49
2019-01-21T15:47:49.038Z,61.60
2019-01-21T15:51:13.587Z,61.73
2019-01-21T15:54:23.470Z,61.85
2019-01-21T15:57:34.145Z,61.97
2019-01-21T16:00:43.848Z,62.09
2019-01-21T16:03:30.406Z,62.17
2019-01-21T16:06:52.698Z,62.30
2019-01-21T16:09:58.430Z,62.34
2019-01-21T16:12:49.166Z,62.45
2019-01-21T16:16:10.455Z,62.55
2019-01-21T16:18:47.414Z,62.58
2019-01-21T16:22:14.127Z,62.64
2019-01-21T16:25:05.721Z,62.66
2019-01-21T16:28:21.326Z,62.74
2019-01-21T16:31:05.515Z,62.75
2019-01-21T16:34:37.145Z,62.84
2019-01-21T16:37:35.487Z,62.85
2019-01-21T16:40:50.602Z,62.94
2019-01-21T16:43:21.912Z,62.98
2019-01-21T16:45:53.306Z,63.03
2019-01-21T16:48:24.610Z,63.03
2019-01-21T16:50:56.035Z,63.08
2019-01-21T16:53:27.300Z,63.12
2019-01-21T16:55:58.512Z,63.17
2019-01-21T16:58:29.740Z,63.21
2019-01-21T17:01:01.059Z,63.24
2019-01-21T17:03:33.705Z,63.24
2019-01-21T17:06:05.089Z,63.27
2019-01-21T17:08:36.564Z,63.31
2019-01-21T17:11:07.896Z,63.33
2019-01-21T17:13:39.237Z,63.33
2019-01-21T17:16:10.547Z,63.37
2019-01-21T17:18:41.796Z,63.38
2019-01-21T17:21:13.059Z,63.38
2019-01-21T17:23:44.345Z,63.40
2019-01-21T17:26:15.872Z,63.38
2019-01-21T17:28:47.126Z,63.42
2019-01-21T17:31:18.496Z,63.46
2019-01-21T17:33:50.241Z,63.47
2019-01-21T17:36:21.702Z,63.53
2019-01-21T17:38:53.068Z,63.56
2019-01-21T17:41:24.437Z,63.58
2019-01-21T17:43:55.760Z,63.61
2019-01-21T17:46:27.320Z,63.67
2019-01-21T17:48:58.826Z,63.70
2019-01-21T17:51:33.794Z,63.75
2019-01-21T17:54:03.159Z,63.77
2019-01-21T17:56:35.627Z,63.82
2019-01-21T17:59:06.832Z,63.88
2019-01-21T18:01:39.433Z,63.91
2019-01-21T18:04:10.926Z,63.92
2019-01-21T18:06:42.370Z,63.94
2019-01-21T18:09:13.781Z,63.98
2019-01-21T18:11:45.011Z,63.94
2019-01-21T18:14:16.301Z,63.97
2019-01-21T18:16:47.733Z,63.99
2019-01-21T18:19:19.105Z,64.03
2019-01-21T18:21:50.355Z,64.09
2019-01-21T18:24:21.933Z,64.13
2019-01-21T18:26:53.284Z,64.17
2019-01-21T18:29:24.714Z,64.23
2019-01-21T18:31:56.195Z,64.26
2019-01-21T18:34:27.443Z,64.31
2019-01-21T18:36:58.619Z,64.30
2019-01-21T18:39:29.916Z,64.31
2019-01-21T18:42:01.200Z,64.35
2019-01-21T18:44:32.563Z,64.33
2019-01-21T18:47:03.910Z,64.34
2019-01-21T18:49:35.364Z,64.36
2019-01-21T18:52:06.673Z,64.37
2019-01-21T18:54:38.096Z,64.40
2019-01-21T18:57:09.467Z,64.39
2019-01-21T18:59:40.739Z,64.38
2019-01-21T19:02:12.151Z,64.37
2019-01-21T19:04:43.499Z,64.44
2019-01-21T19:07:14.908Z,64.36
2019-01-21T19:09:46.254Z,64.34
2019-01-21T19:12:17.540Z,64.34
2019-01-21T19:14:49.826Z,64.30
2019-01-21T19:17:23.272Z,64.29
2019-01-21T19:19:55.123Z,64.28
2019-01-21T19:22:26.419Z,64.28
2019-01-21T19:25:06.237Z,64.26
2019-01-21T19:27:39.535Z,64.23
2019-01-21T19:30:17.460Z,64.23
2019-01-21T19:32:48.742Z,64.21
2019-01-21T19:35:26.121Z,64.17
2019-01-21T19:37:57.684Z,64.15
2019-01-21T19:40:29.226Z,64.10
2019-01-21T19:43:00.706Z,64.10
2019-01-21T19:45:32.248Z,64.04
2019-01-21T19:48:04.779Z,64.03
2019-01-21T19:50:36.423Z,64.04
2019-01-21T19:53:07.800Z,64.03
2019-01-21T19:55:44.159Z,64.02
2019-01-21T19:58:15.616Z,63.99
2019-01-21T20:00:46.996Z,63.97
2019-01-21T20:03:22.677Z,63.94
2019-01-21T20:05:53.902Z,63.95
2019-01-21T20:08:26.397Z,63.94
2019-01-21T20:10:57.888Z,63.94
2019-01-21T20:13:29.531Z,63.95
2019-01-21T20:16:21.335Z,63.97
2019-01-21T20:18:57.378Z,63.99
2019-01-21T20:21:30.319Z,64.04
2019-01-21T20:24:15.057Z,64.05
2019-01-21T20:26:58.023Z,64.05
2019-01-21T20:29:44.726Z,64.11
2019-01-21T20:32:17.050Z,64.12
2019-01-21T20:35:01.323Z,64.14
2019-01-21T20:37:38.985Z,64.13
2019-01-21T20:40:38.949Z,64.16
2019-01-21T20:43:15.203Z,64.17
2019-01-21T20:45:56.881Z,64.19
2019-01-21T20:48:34.028Z,64.17
2019-01-21T20:51:17.299Z,64.21
2019-01-21T20:53:51.431Z,64.22
2019-01-21T20:56:55.962Z,64.19
2019-01-21T20:59:33.660Z,64.19
2019-01-21T21:02:09.132Z,64.19
2019-01-21T21:04:40.468Z,64.19
2019-01-21T21:07:11.801Z,64.21
2019-01-21T21:09:46.087Z,64.21
2019-01-21T21:12:25.835Z,64.22
2019-01-21T21:14:57.150Z,64.25
2019-01-21T21:17:29.187Z,64.29
2019-01-21T21:20:00.678Z,64.30
2019-01-21T21:22:32.158Z,64.34
2019-01-21T21:25:03.578Z,64.36
2019-01-21T21:27:35.072Z,64.40
2019-01-21T21:30:09.782Z,64.43
2019-01-21T21:32:41.147Z,64.47
2019-01-21T21:35:12.454Z,64.49
2019-01-21T21:37:43.983Z,64.51
2019-01-21T21:40:16.773Z,64.54
2019-01-21T21:42:48.086Z,64.55
2019-01-21T21:45:19.703Z,64.57
2019-01-21T21:47:51.072Z,64.57
2019-01-21T21:50:30.580Z,64.62
2019-01-21T21:53:02.072Z,64.59
2019-01-21T21:55:33.549Z,64.60
2019-01-21T21:58:05.905Z,64.60
2019-01-21T22:00:37.245Z,64.59
2019-01-21T22:03:08.562Z,64.59
2019-01-21T22:05:39.959Z,64.54
2019-01-21T22:08:11.207Z,64.50
2019-01-21T22:10:42.452Z,64.46
2019-01-21T22:13:13.822Z,64.43
2019-01-21T22:15:45.027Z,64.43
2019-01-21T22:18:16.292Z,64.42
2019-01-21T22:20:47.979Z,64.41
2019-01-21T22:23:19.278Z,64.42
2019-01-21T22:25:50.489Z,64.39
2019-01-21T22:28:21.742Z,64.37
2019-01-21T22:30:53.120Z,64.36
2019-01-21T22:33:24.618Z,64.36
2019-01-21T22:35:55.793Z,64.37
2019-01-21T22:38:29.082Z,64.38
2019-01-21T22:41:00.392Z,64.35
2019-01-21T22:43:32.038Z,64.35
2019-01-21T22:46:04.398Z,64.32
2019-01-21T22:48:35.816Z,64.32
2019-01-21T22:51:07.127Z,64.30
2019-01-21T22:53:38.804Z,64.29
2019-01-21T22:56:10.141Z,64.29
2019-01-21T22:58:41.487Z,64.27
2019-01-21T23:01:26.162Z,64.25
2019-01-21T23:03:57.368Z,64.24
2019-01-21T23:06:28.617Z,64.20
2019-01-21T23:08:59.851Z,64.16
2019-01-21T23:11:37.280Z,64.14
2019-01-21T23:14:08.690Z,64.13
2019-01-21T23:16:39.967Z,64.09
2019-01-21T23:19:11.186Z,64.08
2019-01-21T23:21:42.472Z,64.09
2019-01-21T23:24:16.570Z,64.08
2019-01-21T23:26:46.721Z,64.08
2019-01-21T23:29:17.955Z,64.05
2019-01-21T23:31:49.892Z,64.05
2019-01-21T23:34:21.178Z,64.02
2019-01-21T23:36:52.428Z,64.03
2019-01-21T23:39:23.796Z,64.00
2019-01-21T23:41:54.956Z,63.98
2019-01-21T23:44:26.245Z,63.96
2019-01-21T23:46:57.427Z,63.97
2019-01-21T23:49:28.899Z,63.95
2019-01-21T23:52:00.151Z,63.94
2019-01-21T23:54:31.363Z,63.88
2019-01-21T23:57:02.674Z,63.89
2019-01-21T23:59:34.334Z,63.90
